createdAt,value
2023-04-06T00:01:16.672Z,84.84
2023-04-06T00:06:18.205Z,84.99
2023-04-06T00:11:19.740Z,84.90
2023-04-06T00:16:22.442Z,84.94
2023-04-06T00:21:26.877Z,85.10
2023-04-06T00:26:28.372Z,85.58
2023-04-06T00:31:29.935Z,86.46
2023-04-06T00:36:31.719Z,86.95
2023-04-06T00:41:33.246Z,87.42
2023-04-06T00:46:35.924Z,86.90
2023-04-06T00:51:37.539Z,87.69
2023-04-06T00:56:39.091Z,87.59
2023-04-06T01:01:40.874Z,87.63
2023-04-06T01:06:42.720Z,87.62
2023-04-06T01:11:44.630Z,87.53
2023-04-06T01:16:46.185Z,88.37
2023-04-06T01:21:47.920Z,87.48
2023-04-06T01:26:49.559Z,87.43
2023-04-06T01:31:51.431Z,87.07
2023-04-06T01:36:53.050Z,86.02
2023-04-06T01:41:54.518Z,86.22
2023-04-06T01:46:56.633Z,85.97
2023-04-06T01:51:58.241Z,86.02
2023-04-06T01:56:59.992Z,85.15
2023-04-06T02:02:01.509Z,85.19
2023-04-06T02:07:03.097Z,85.90
2023-04-06T02:12:04.668Z,85.50
2023-04-06T02:17:06.148Z,85.08
2023-04-06T02:22:07.786Z,84.75
2023-04-06T02:27:09.314Z,85.53
2023-04-06T02:32:10.927Z,84.89
2023-04-06T02:37:12.549Z,85.88
2023-04-06T02:42:16.151Z,85.31
2023-04-06T02:47:17.669Z,85.45
2023-04-06T02:52:19.299Z,85.94
2023-04-06T02:57:21.153Z,85.33
2023-04-06T03:02:22.803Z,86.00
2023-04-06T03:07:24.331Z,85.00
2023-04-06T03:12:25.838Z,84.49
2023-04-06T03:17:27.385Z,84.36
2023-04-06T03:22:30.072Z,84.72
2023-04-06T03:27:31.553Z,84.92
2023-04-06T03:32:33.106Z,85.05
2023-04-06T03:37:34.632Z,85.00
2023-04-06T03:42:36.109Z,84.11
2023-04-06T03:47:37.697Z,84.12
2023-04-06T03:52:39.235Z,83.17
2023-04-06T03:57:40.797Z,83.41
2023-04-06T04:02:42.343Z,83.04
2023-04-06T04:07:43.920Z,82.47
2023-04-06T04:12:45.444Z,81.71
2023-04-06T04:17:51.555Z,81.09
2023-04-06T04:22:53.135Z,81.38
2023-04-06T04:27:54.617Z,80.98
2023-04-06T04:32:56.196Z,80.48
2023-04-06T04:37:57.780Z,81.11
2023-04-06T04:42:59.313Z,80.70
2023-04-06T04:48:01.012Z,80.71
2023-04-06T04:53:02.620Z,81.39
2023-04-06T04:58:04.100Z,82.87
2023-04-06T05:03:06.500Z,83.47
2023-04-06T05:08:08.160Z,83.37
2023-04-06T05:13:09.858Z,84.49
2023-04-06T05:18:12.043Z,85.57
2023-04-06T05:23:13.929Z,85.83
2023-04-06T05:28:16.892Z,86.01
2023-04-06T05:33:18.456Z,87.28
2023-04-06T05:38:19.988Z,88.63
2023-04-06T05:43:23.173Z,89.13
2023-04-06T05:48:32.428Z,88.31
2023-04-06T05:53:33.929Z,87.11
2023-04-06T05:58:35.539Z,87.49
2023-04-06T06:03:38.205Z,87.65
2023-04-06T06:08:39.824Z,87.39
2023-04-06T06:13:41.343Z,87.31
2023-04-06T06:18:42.871Z,86.83
2023-04-06T06:23:44.396Z,85.62
2023-04-06T06:28:46.346Z,85.69
2023-04-06T06:33:51.226Z,87.26
2023-04-06T06:38:52.776Z,86.81
2023-04-06T06:43:54.350Z,85.29
2023-04-06T06:48:55.993Z,84.16
2023-04-06T06:53:57.607Z,82.81
2023-04-06T06:58:59.123Z,83.12
2023-04-06T07:04:00.796Z,82.40
2023-04-06T07:09:04.078Z,82.57
2023-04-06T07:14:05.976Z,81.95
2023-04-06T07:19:07.557Z,82.25
2023-04-06T07:24:09.356Z,83.16
2023-04-06T07:29:11.014Z,83.74
2023-04-06T07:34:12.496Z,84.28
2023-04-06T07:39:14.172Z,84.20
2023-04-06T07:44:16.053Z,85.28
2023-04-06T07:49:17.673Z,85.90
2023-04-06T07:54:19.140Z,86.55
2023-04-06T07:59:21.173Z,88.02
2023-04-06T08:04:22.851Z,89.91
2023-04-06T08:09:24.469Z,90.68
2023-04-06T08:14:25.978Z,91.50
2023-04-06T08:19:27.493Z,91.01
2023-04-06T08:24:29.027Z,90.52
2023-04-06T08:29:30.575Z,90.79
2023-04-06T08:34:33.979Z,91.03
2023-04-06T08:39:35.735Z,89.52
2023-04-06T08:44:38.819Z,88.79
2023-04-06T08:49:41.464Z,87.91
2023-04-06T08:54:43.030Z,87.52
2023-04-06T08:59:45.441Z,87.55
2023-04-06T09:04:49.802Z,87.07
2023-04-06T09:09:52.663Z,86.22
2023-04-06T09:14:55.359Z,85.93
2023-04-06T09:19:57.696Z,86.46
2023-04-06T09:24:59.170Z,86.77
2023-04-06T09:30:08.585Z,85.30
2023-04-06T09:35:10.470Z,84.28
2023-04-06T09:40:12.466Z,84.34
2023-04-06T09:45:14.551Z,84.27
2023-04-06T09:50:17.471Z,83.37
2023-04-06T09:55:25.658Z,83.84
2023-04-06T10:00:28.118Z,82.52
2023-04-06T10:05:43.522Z,83.23
2023-04-06T10:10:45.991Z,84.41
2023-04-06T10:15:47.900Z,85.61
2023-04-06T10:21:02.795Z,85.63
2023-04-06T10:26:04.729Z,85.70
2023-04-06T10:31:07.343Z,85.11
2023-04-06T10:36:16.454Z,86.01
2023-04-06T10:41:18.258Z,86.65
2023-04-06T10:46:29.724Z,87.13
2023-04-06T10:51:31.879Z,87.92
2023-04-06T10:56:35.446Z,89.06
2023-04-06T11:01:37.095Z,91.35
2023-04-06T11:06:39.332Z,92.39
2023-04-06T11:11:41.153Z,92.80
2023-04-06T11:16:42.749Z,92.92
2023-04-06T11:21:49.271Z,93.41
2023-04-06T11:26:57.263Z,93.87
2023-04-06T11:32:03.961Z,95.46
2023-04-06T11:37:10.718Z,96.60
2023-04-06T11:42:12.253Z,98.46
2023-04-06T11:47:13.815Z,99.41
2023-04-06T11:52:26.108Z,100.00
2023-04-06T11:57:28.966Z,100.00
2023-04-06T12:02:30.524Z,100.00
2023-04-06T12:07:32.463Z,100.00
2023-04-06T12:12:34.052Z,100.00
2023-04-06T12:17:35.789Z,100.00
2023-04-06T12:22:37.480Z,100.00
2023-04-06T12:27:39.017Z,100.00
2023-04-06T12:32:40.776Z,100.00
2023-04-06T12:37:43.104Z,100.00
2023-04-06T12:42:44.792Z,100.00
2023-04-06T12:47:46.329Z,100.00
2023-04-06T12:52:48.610Z,100.00
2023-04-06T12:57:50.892Z,100.00
2023-04-06T13:02:52.525Z,100.00
2023-04-06T13:07:54.181Z,100.00
2023-04-06T13:12:55.680Z,100.00
2023-04-06T13:17:57.236Z,100.00
2023-04-06T13:22:58.775Z,100.00
2023-04-06T13:28:00.398Z,100.00
2023-04-06T13:33:02.672Z,100.00
2023-04-06T13:38:04.234Z,100.00
2023-04-06T13:43:05.927Z,100.00
2023-04-06T13:48:07.632Z,100.00
2023-04-06T13:53:09.239Z,100.00
2023-04-06T13:58:10.928Z,100.00
2023-04-06T14:03:12.552Z,100.00
2023-04-06T14:08:14.428Z,100.00
2023-04-06T14:13:16.482Z,100.00
2023-04-06T14:18:17.960Z,100.00
2023-04-06T14:23:19.439Z,100.00
2023-04-06T14:28:23.097Z,100.00
2023-04-06T14:33:24.652Z,100.00
2023-04-06T14:38:26.138Z,100.00
2023-04-06T14:43:27.729Z,100.00
2023-04-06T14:48:29.491Z,100.00
2023-04-06T14:53:32.763Z,100.00
2023-04-06T14:58:34.397Z,100.00
2023-04-06T15:03:36.121Z,100.00
2023-04-06T15:08:37.729Z,100.00
2023-04-06T15:13:40.919Z,100.00
2023-04-06T15:18:42.475Z,100.00
2023-04-06T15:23:46.921Z,100.00
2023-04-06T15:28:48.747Z,100.00
2023-04-06T15:33:50.572Z,100.00
2023-04-06T15:38:53.891Z,100.00
2023-04-06T15:43:55.863Z,100.00
2023-04-06T15:48:57.479Z,100.00
2023-04-06T15:53:59.024Z,100.00
2023-04-06T15:59:00.698Z,100.00
2023-04-06T16:04:02.579Z,100.00
2023-04-06T16:09:04.160Z,100.00
2023-04-06T16:14:05.634Z,100.00
2023-04-06T16:19:07.160Z,100.00
2023-04-06T16:24:08.691Z,100.00
2023-04-06T16:29:10.784Z,100.00
2023-04-06T16:34:12.470Z,100.00
2023-04-06T16:39:13.986Z,100.00
2023-04-06T16:44:15.763Z,100.00
2023-04-06T16:49:19.441Z,100.00
2023-04-06T16:54:21.028Z,100.00
2023-04-06T16:59:22.550Z,100.00
2023-04-06T17:04:24.219Z,100.00
2023-04-06T17:09:25.881Z,100.00
2023-04-06T17:14:28.953Z,100.00
2023-04-06T17:19:32.420Z,100.00
2023-04-06T17:24:33.938Z,100.00
2023-04-06T17:29:36.683Z,100.00
2023-04-06T17:34:38.353Z,100.00
2023-04-06T17:39:39.930Z,100.00
2023-04-06T17:44:41.671Z,100.00
2023-04-06T17:49:43.400Z,100.00
2023-04-06T17:54:45.373Z,100.00
2023-04-06T17:59:47.123Z,100.00
2023-04-06T18:04:55.307Z,100.00
2023-04-06T18:09:57.011Z,100.00
2023-04-06T18:14:58.573Z,100.00
2023-04-06T18:20:00.361Z,100.00
2023-04-06T18:25:02.084Z,100.00
2023-04-06T18:30:04.592Z,100.00
2023-04-06T18:35:09.136Z,100.00
2023-04-06T18:40:31.252Z,100.00
2023-04-06T18:45:34.738Z,100.00
2023-04-06T18:50:36.662Z,100.00
2023-04-06T18:55:38.280Z,100.00
2023-04-06T19:00:41.809Z,100.00
2023-04-06T19:05:43.782Z,100.00
2023-04-06T19:10:45.593Z,100.00
2023-04-06T19:15:47.127Z,100.00
2023-04-06T19:20:48.606Z,100.00
2023-04-06T19:25:50.146Z,100.00
2023-04-06T19:30:52.085Z,100.00
2023-04-06T19:35:53.610Z,100.00
2023-04-06T19:40:55.194Z,100.00
2023-04-06T19:45:56.743Z,100.00
2023-04-06T19:50:58.279Z,100.00
2023-04-06T19:55:59.871Z,100.00
2023-04-06T20:01:02.276Z,100.00
2023-04-06T20:06:03.915Z,100.00
2023-04-06T20:11:07.552Z,100.00
2023-04-06T20:16:09.353Z,100.00
2023-04-06T20:21:10.905Z,100.00
2023-04-06T20:26:12.373Z,100.00
2023-04-06T20:31:13.925Z,100.00
2023-04-06T20:36:15.420Z,100.00
2023-04-06T20:41:16.915Z,100.00
2023-04-06T20:46:18.588Z,100.00
2023-04-06T20:51:23.682Z,100.00
2023-04-06T20:56:26.737Z,100.00
2023-04-06T21:01:29.687Z,100.00
2023-04-06T21:06:32.239Z,100.00
2023-04-06T21:11:33.841Z,100.00
2023-04-06T21:16:35.502Z,100.00
2023-04-06T21:21:36.954Z,100.00
2023-04-06T21:26:38.429Z,100.00
2023-04-06T21:31:41.788Z,100.00
2023-04-06T21:36:43.884Z,100.00
2023-04-06T21:41:45.364Z,100.00
2023-04-06T21:46:46.894Z,100.00
2023-04-06T21:51:48.477Z,100.00
2023-04-06T21:56:49.945Z,100.00
2023-04-06T22:01:51.519Z,100.00
2023-04-06T22:06:53.034Z,100.00
2023-04-06T22:11:54.545Z,100.00
2023-04-06T22:16:56.069Z,100.00
2023-04-06T22:21:57.589Z,100.00
2023-04-06T22:26:59.207Z,100.00
2023-04-06T22:32:00.900Z,100.00
2023-04-06T22:37:02.395Z,100.00
2023-04-06T22:42:05.738Z,100.00
2023-04-06T22:47:07.328Z,100.00
2023-04-06T22:52:08.940Z,100.00
2023-04-06T22:57:10.531Z,100.00
2023-04-06T23:02:12.152Z,100.00
2023-04-06T23:07:15.371Z,100.00
2023-04-06T23:12:17.000Z,100.00
2023-04-06T23:17:18.736Z,100.00
2023-04-06T23:22:20.415Z,100.00
2023-04-06T23:27:21.955Z,100.00
2023-04-06T23:32:23.521Z,100.00
2023-04-06T23:37:25.200Z,100.00
2023-04-06T23:42:29.097Z,100.00
2023-04-06T23:47:30.875Z,100.00
2023-04-06T23:52:32.474Z,100.00
2023-04-06T23:57:33.935Z,100.00
